sensor_id;sensor_type;location;lat;lon;timestamp;temperature;humidity
7564;DHT22;3823;53.586;10.040;2022-07-01T00:00:47;23.40;31.50
7564;DHT22;3823;53.586;10.040;2022-07-01T00:03:13;23.60;29.50
7564;DHT22;3823;53.586;10.040;2022-07-01T00:05:38;23.60;28.60
7564;DHT22;3823;53.586;10.040;2022-07-01T00:08:04;23.70;25.60
7564;DHT22;3823;53.586;10.040;2022-07-01T00:10:30;23.70;24.60
7564;DHT22;3823;53.586;10.040;2022-07-01T00:12:56;23.80;23.90
7564;DHT22;3823;53.586;10.040;2022-07-01T00:15:21;23.80;21.80
7564;DHT22;3823;53.586;10.040;2022-07-01T00:17:48;23.80;21.60
7564;DHT22;3823;53.586;10.040;2022-07-01T00:20:13;23.70;22.00
7564;DHT22;3823;53.586;10.040;2022-07-01T00:22:40;23.50;23.00
7564;DHT22;3823;53.586;10.040;2022-07-01T00:25:06;23.40;23.00
7564;DHT22;3823;53.586;10.040;2022-07-01T00:27:33;23.30;24.80
7564;DHT22;3823;53.586;10.040;2022-07-01T00:30:01;23.30;25.90
7564;DHT22;3823;53.586;10.040;2022-07-01T00:32:27;23.20;27.20
7564;DHT22;3823;53.586;10.040;2022-07-01T00:34:53;22.80;28.50
7564;DHT22;3823;53.586;10.040;2022-07-01T00:37:18;22.70;29.30
7564;DHT22;3823;53.586;10.040;2022-07-01T00:39:44;22.50;30.00
7564;DHT22;3823;53.586;10.040;2022-07-01T00:42:10;22.30;33.60
7564;DHT22;3823;53.586;10.040;2022-07-01T00:44:36;22.30;34.10
7564;DHT22;3823;53.586;10.040;2022-07-01T00:47:03;22.30;34.50
7564;DHT22;3823;53.586;10.040;2022-07-01T00:49:33;22.20;42.30
7564;DHT22;3823;53.586;10.040;2022-07-01T00:52:00;22.10;43.20
7564;DHT22;3823;53.586;10.040;2022-07-01T00:54:26;21.90;48.10
7564;DHT22;3823;53.586;10.040;2022-07-01T00:56:54;21.90;50.40
7564;DHT22;3823;53.586;10.040;2022-07-01T00:59:21;21.90;50.90
7564;DHT22;3823;53.586;10.040;2022-07-01T01:01:46;21.60;51.50
7564;DHT22;3823;53.586;10.040;2022-07-01T01:04:12;21.60;55.30
7564;DHT22;3823;53.586;10.040;2022-07-01T01:06:37;21.00;52.30
7564;DHT22;3823;53.586;10.040;2022-07-01T01:09:03;20.80;57.00
7564;DHT22;3823;53.586;10.040;2022-07-01T01:11:30;20.70;55.30
7564;DHT22;3823;53.586;10.040;2022-07-01T01:13:56;20.60;56.80
7564;DHT22;3823;53.586;10.040;2022-07-01T01:16:22;20.60;57.80
7564;DHT22;3823;53.586;10.040;2022-07-01T01:18:48;20.50;61.10
7564;DHT22;3823;53.586;10.040;2022-07-01T01:21:15;20.50;61.50
7564;DHT22;3823;53.586;10.040;2022-07-01T01:23:41;20.60;66.40
7564;DHT22;3823;53.586;10.040;2022-07-01T01:26:21;20.60;63.10
7564;DHT22;3823;53.586;10.040;2022-07-01T01:28:48;20.70;63.80
7564;DHT22;3823;53.586;10.040;2022-07-01T01:31:14;20.90;68.00
7564;DHT22;3823;53.586;10.040;2022-07-01T01:33:39;21.00;68.00
7564;DHT22;3823;53.586;10.040;2022-07-01T01:36:06;21.10;68.70
7564;DHT22;3823;53.586;10.040;2022-07-01T01:38:35;21.10;68.00
7564;DHT22;3823;53.586;10.040;2022-07-01T01:41:02;21.20;66.30
7564;DHT22;3823;53.586;10.040;2022-07-01T01:43:27;21.20;66.40
7564;DHT22;3823;53.586;10.040;2022-07-01T01:45:53;21.10;67.70
7564;DHT22;3823;53.586;10.040;2022-07-01T01:48:18;21.10;65.90
7564;DHT22;3823;53.586;10.040;2022-07-01T01:50:44;21.10;69.00
7564;DHT22;3823;53.586;10.040;2022-07-01T01:53:09;21.10;66.30
7564;DHT22;3823;53.586;10.040;2022-07-01T01:55:35;21.00;64.10
7564;DHT22;3823;53.586;10.040;2022-07-01T01:58:01;20.90;67.00
7564;DHT22;3823;53.586;10.040;2022-07-01T02:00:26;20.90;70.20
7564;DHT22;3823;53.586;10.040;2022-07-01T02:02:52;21.00;71.80
7564;DHT22;3823;53.586;10.040;2022-07-01T02:05:17;21.10;70.90
7564;DHT22;3823;53.586;10.040;2022-07-01T02:07:44;21.20;70.30
7564;DHT22;3823;53.586;10.040;2022-07-01T02:10:10;21.20;70.50
7564;DHT22;3823;53.586;10.040;2022-07-01T02:12:35;21.30;68.50
7564;DHT22;3823;53.586;10.040;2022-07-01T02:15:01;21.30;69.20
7564;DHT22;3823;53.586;10.040;2022-07-01T02:17:27;21.30;66.50
7564;DHT22;3823;53.586;10.040;2022-07-01T02:19:52;21.10;66.70
7564;DHT22;3823;53.586;10.040;2022-07-01T02:22:18;21.20;70.80
7564;DHT22;3823;53.586;10.040;2022-07-01T02:24:44;21.10;68.50
7564;DHT22;3823;53.586;10.040;2022-07-01T02:27:10;21.10;65.60
7564;DHT22;3823;53.586;10.040;2022-07-01T02:29:35;21.00;65.00
7564;DHT22;3823;53.586;10.040;2022-07-01T02:32:01;20.90;64.00
7564;DHT22;3823;53.586;10.040;2022-07-01T02:34:26;20.80;67.90
7564;DHT22;3823;53.586;10.040;2022-07-01T02:36:52;20.90;70.80
7564;DHT22;3823;53.586;10.040;2022-07-01T02:39:20;21.00;73.00
7564;DHT22;3823;53.586;10.040;2022-07-01T02:41:46;21.10;72.50
7564;DHT22;3823;53.586;10.040;2022-07-01T02:44:30;21.20;74.40
7564;DHT22;3823;53.586;10.040;2022-07-01T02:46:56;21.20;71.50
7564;DHT22;3823;53.586;10.040;2022-07-01T02:49:22;21.20;71.50
7564;DHT22;3823;53.586;10.040;2022-07-01T02:51:48;21.20;65.70
7564;DHT22;3823;53.586;10.040;2022-07-01T02:54:13;21.10;69.10
7564;DHT22;3823;53.586;10.040;2022-07-01T02:56:39;21.20;70.50
7564;DHT22;3823;53.586;10.040;2022-07-01T02:59:04;21.20;71.10
7564;DHT22;3823;53.586;10.040;2022-07-01T03:01:30;21.20;71.60
7564;DHT22;3823;53.586;10.040;2022-07-01T03:03:55;21.20;71.40
7564;DHT22;3823;53.586;10.040;2022-07-01T03:06:21;21.20;71.10
7564;DHT22;3823;53.586;10.040;2022-07-01T03:08:46;21.20;70.90
7564;DHT22;3823;53.586;10.040;2022-07-01T03:11:12;21.30;69.70
7564;DHT22;3823;53.586;10.040;2022-07-01T03:13:37;21.30;67.20
7564;DHT22;3823;53.586;10.040;2022-07-01T03:16:03;21.30;67.10
7564;DHT22;3823;53.586;10.040;2022-07-01T03:18:29;21.30;69.10
7564;DHT22;3823;53.586;10.040;2022-07-01T03:20:54;21.30;69.30
7564;DHT22;3823;53.586;10.040;2022-07-01T03:23:20;21.30;67.60
7564;DHT22;3823;53.586;10.040;2022-07-01T03:25:45;21.20;67.00
7564;DHT22;3823;53.586;10.040;2022-07-01T03:28:11;21.20;65.10
7564;DHT22;3823;53.586;10.040;2022-07-01T03:30:36;21.20;65.00
7564;DHT22;3823;53.586;10.040;2022-07-01T03:33:02;21.20;64.90
7564;DHT22;3823;53.586;10.040;2022-07-01T03:35:27;21.10;64.50
7564;DHT22;3823;53.586;10.040;2022-07-01T03:38:05;21.10;66.00
7564;DHT22;3823;53.586;10.040;2022-07-01T03:40:32;21.00;66.00
7564;DHT22;3823;53.586;10.040;2022-07-01T03:42:57;20.90;66.80
7564;DHT22;3823;53.586;10.040;2022-07-01T03:45:23;20.80;68.20
7564;DHT22;3823;53.586;10.040;2022-07-01T03:47:49;20.80;68.40
7564;DHT22;3823;53.586;10.040;2022-07-01T03:50:16;20.80;66.80
7564;DHT22;3823;53.586;10.040;2022-07-01T03:52:42;20.80;67.00
7564;DHT22;3823;53.586;10.040;2022-07-01T03:55:09;20.90;66.10
7564;DHT22;3823;53.586;10.040;2022-07-01T03:57:35;20.90;65.30
7564;DHT22;3823;53.586;10.040;2022-07-01T04:00:01;20.90;65.20
7564;DHT22;3823;53.586;10.040;2022-07-01T04:02:27;20.90;67.90
7564;DHT22;3823;53.586;10.040;2022-07-01T04:04:52;21.00;66.50
7564;DHT22;3823;53.586;10.040;2022-07-01T04:07:20;20.90;67.90
7564;DHT22;3823;53.586;10.040;2022-07-01T04:09:46;20.90;67.90
7564;DHT22;3823;53.586;10.040;2022-07-01T04:12:12;20.90;70.00
7564;DHT22;3823;53.586;10.040;2022-07-01T04:14:38;21.00;67.70
7564;DHT22;3823;53.586;10.040;2022-07-01T04:17:04;21.00;67.90
7564;DHT22;3823;53.586;10.040;2022-07-01T04:19:30;20.90;68.90
7564;DHT22;3823;53.586;10.040;2022-07-01T04:21:55;20.80;70.40
7564;DHT22;3823;53.586;10.040;2022-07-01T04:24:39;20.80;70.10
7564;DHT22;3823;53.586;10.040;2022-07-01T04:27:05;20.80;71.20
7564;DHT22;3823;53.586;10.040;2022-07-01T04:29:30;20.80;69.00
7564;DHT22;3823;53.586;10.040;2022-07-01T04:31:57;20.80;70.50
7564;DHT22;3823;53.586;10.040;2022-07-01T04:34:23;20.80;70.40
7564;DHT22;3823;53.586;10.040;2022-07-01T04:36:48;20.80;69.20
7564;DHT22;3823;53.586;10.040;2022-07-01T04:39:14;20.80;68.10
7564;DHT22;3823;53.586;10.040;2022-07-01T04:41:39;20.70;68.50
7564;DHT22;3823;53.586;10.040;2022-07-01T04:44:23;20.70;68.80
7564;DHT22;3823;53.586;10.040;2022-07-01T04:46:49;20.60;68.50
7564;DHT22;3823;53.586;10.040;2022-07-01T04:49:15;20.50;70.40
7564;DHT22;3823;53.586;10.040;2022-07-01T04:51:41;20.40;70.10
7564;DHT22;3823;53.586;10.040;2022-07-01T04:54:06;20.40;71.60
7564;DHT22;3823;53.586;10.040;2022-07-01T04:56:33;20.30;73.50
7564;DHT22;3823;53.586;10.040;2022-07-01T04:59:00;20.40;71.60
7564;DHT22;3823;53.586;10.040;2022-07-01T05:01:25;20.40;71.30
7564;DHT22;3823;53.586;10.040;2022-07-01T05:03:51;20.40;71.20
7564;DHT22;3823;53.586;10.040;2022-07-01T05:06:17;20.40;70.00
7564;DHT22;3823;53.586;10.040;2022-07-01T05:08:42;20.30;70.70
7564;DHT22;3823;53.586;10.040;2022-07-01T05:11:08;20.20;71.30
7564;DHT22;3823;53.586;10.040;2022-07-01T05:13:34;20.10;73.30
7564;DHT22;3823;53.586;10.040;2022-07-01T05:16:00;20.10;73.20
7564;DHT22;3823;53.586;10.040;2022-07-01T05:18:26;20.00;69.60
7564;DHT22;3823;53.586;10.040;2022-07-01T05:21:10;19.90;68.00
7564;DHT22;3823;53.586;10.040;2022-07-01T05:23:54;19.70;69.30
7564;DHT22;3823;53.586;10.040;2022-07-01T05:26:20;19.60;70.50
7564;DHT22;3823;53.586;10.040;2022-07-01T05:28:46;19.50;71.00
7564;DHT22;3823;53.586;10.040;2022-07-01T05:31:12;19.40;70.40
7564;DHT22;3823;53.586;10.040;2022-07-01T05:33:38;19.40;69.30
7564;DHT22;3823;53.586;10.040;2022-07-01T05:36:04;19.30;69.10
7564;DHT22;3823;53.586;10.040;2022-07-01T05:38:30;19.30;70.90
7564;DHT22;3823;53.586;10.040;2022-07-01T05:40:56;19.20;71.70
7564;DHT22;3823;53.586;10.040;2022-07-01T05:43:21;19.20;71.40
7564;DHT22;3823;53.586;10.040;2022-07-01T05:45:47;19.20;69.60
7564;DHT22;3823;53.586;10.040;2022-07-01T05:48:12;19.10;68.40
7564;DHT22;3823;53.586;10.040;2022-07-01T05:50:40;19.00;70.50
7564;DHT22;3823;53.586;10.040;2022-07-01T05:53:06;18.90;71.30
7564;DHT22;3823;53.586;10.040;2022-07-01T05:55:31;18.90;70.30
7564;DHT22;3823;53.586;10.040;2022-07-01T05:57:57;19.00;69.60
7564;DHT22;3823;53.586;10.040;2022-07-01T06:00:23;18.90;68.90
7564;DHT22;3823;53.586;10.040;2022-07-01T06:02:48;18.90;68.40
7564;DHT22;3823;53.586;10.040;2022-07-01T06:05:14;18.80;70.00
7564;DHT22;3823;53.586;10.040;2022-07-01T06:07:40;18.70;69.20
7564;DHT22;3823;53.586;10.040;2022-07-01T06:10:07;18.60;70.20
7564;DHT22;3823;53.586;10.040;2022-07-01T06:12:35;18.70;70.00
7564;DHT22;3823;53.586;10.040;2022-07-01T06:15:00;18.60;69.10
7564;DHT22;3823;53.586;10.040;2022-07-01T06:17:26;18.60;71.30
7564;DHT22;3823;53.586;10.040;2022-07-01T06:19:51;18.60;69.40
7564;DHT22;3823;53.586;10.040;2022-07-01T06:22:18;18.60;68.10
7564;DHT22;3823;53.586;10.040;2022-07-01T06:24:46;18.60;69.00
7564;DHT22;3823;53.586;10.040;2022-07-01T06:27:12;18.60;69.60
7564;DHT22;3823;53.586;10.040;2022-07-01T06:29:37;18.60;70.90
7564;DHT22;3823;53.586;10.040;2022-07-01T06:32:05;18.50;69.80
7564;DHT22;3823;53.586;10.040;2022-07-01T06:34:30;18.50;71.20
7564;DHT22;3823;53.586;10.040;2022-07-01T06:36:56;18.50;71.80
7564;DHT22;3823;53.586;10.040;2022-07-01T06:39:21;18.60;68.00
7564;DHT22;3823;53.586;10.040;2022-07-01T06:41:47;18.40;71.80
7564;DHT22;3823;53.586;10.040;2022-07-01T06:44:12;18.50;73.40
7564;DHT22;3823;53.586;10.040;2022-07-01T06:46:38;18.50;74.90
7564;DHT22;3823;53.586;10.040;2022-07-01T06:49:04;18.60;73.10
7564;DHT22;3823;53.586;10.040;2022-07-01T06:51:30;18.60;71.70
7564;DHT22;3823;53.586;10.040;2022-07-01T06:53:55;18.60;71.80
7564;DHT22;3823;53.586;10.040;2022-07-01T06:56:21;18.60;72.90
7564;DHT22;3823;53.586;10.040;2022-07-01T06:58:47;18.60;72.00
7564;DHT22;3823;53.586;10.040;2022-07-01T07:01:12;18.60;72.10
7564;DHT22;3823;53.586;10.040;2022-07-01T07:03:38;18.60;73.50
7564;DHT22;3823;53.586;10.040;2022-07-01T07:06:03;18.60;74.50
7564;DHT22;3823;53.586;10.040;2022-07-01T07:08:31;18.70;73.50
7564;DHT22;3823;53.586;10.040;2022-07-01T07:10:57;18.80;72.80
7564;DHT22;3823;53.586;10.040;2022-07-01T07:13:23;18.70;71.60
7564;DHT22;3823;53.586;10.040;2022-07-01T07:15:49;18.70;69.60
7564;DHT22;3823;53.586;10.040;2022-07-01T07:18:14;18.80;69.60
7564;DHT22;3823;53.586;10.040;2022-07-01T07:20:40;18.80;70.00
7564;DHT22;3823;53.586;10.040;2022-07-01T07:23:06;18.80;70.40
7564;DHT22;3823;53.586;10.040;2022-07-01T07:25:32;18.80;70.90
7564;DHT22;3823;53.586;10.040;2022-07-01T07:27:58;18.80;70.50
7564;DHT22;3823;53.586;10.040;2022-07-01T07:30:23;18.80;68.50
7564;DHT22;3823;53.586;10.040;2022-07-01T07:32:49;18.60;68.20
7564;DHT22;3823;53.586;10.040;2022-07-01T07:35:15;18.50;67.80
7564;DHT22;3823;53.586;10.040;2022-07-01T07:37:41;18.50;67.50
7564;DHT22;3823;53.586;10.040;2022-07-01T07:40:09;18.40;68.40
7564;DHT22;3823;53.586;10.040;2022-07-01T07:42:40;18.40;68.90
7564;DHT22;3823;53.586;10.040;2022-07-01T07:45:07;18.40;66.70
7564;DHT22;3823;53.586;10.040;2022-07-01T07:47:34;18.40;68.00
7564;DHT22;3823;53.586;10.040;2022-07-01T07:49:59;18.30;68.20
7564;DHT22;3823;53.586;10.040;2022-07-01T07:52:25;18.30;69.10
7564;DHT22;3823;53.586;10.040;2022-07-01T07:54:51;18.30;70.30
7564;DHT22;3823;53.586;10.040;2022-07-01T07:57:16;18.30;70.90
7564;DHT22;3823;53.586;10.040;2022-07-01T07:59:42;18.30;69.30
7564;DHT22;3823;53.586;10.040;2022-07-01T08:02:07;18.30;67.70
7564;DHT22;3823;53.586;10.040;2022-07-01T08:04:33;18.30;67.00
7564;DHT22;3823;53.586;10.040;2022-07-01T08:06:59;18.30;64.80
7564;DHT22;3823;53.586;10.040;2022-07-01T08:09:25;18.30;68.30
7564;DHT22;3823;53.586;10.040;2022-07-01T08:11:51;18.30;68.30
7564;DHT22;3823;53.586;10.040;2022-07-01T08:14:17;18.30;67.50
7564;DHT22;3823;53.586;10.040;2022-07-01T08:16:42;18.30;67.10
7564;DHT22;3823;53.586;10.040;2022-07-01T08:19:08;18.40;69.00
7564;DHT22;3823;53.586;10.040;2022-07-01T08:21:33;18.30;67.70
7564;DHT22;3823;53.586;10.040;2022-07-01T08:23:59;18.30;67.90
7564;DHT22;3823;53.586;10.040;2022-07-01T08:26:24;18.40;67.10
7564;DHT22;3823;53.586;10.040;2022-07-01T08:28:50;18.40;65.70
7564;DHT22;3823;53.586;10.040;2022-07-01T08:31:16;18.40;65.10
7564;DHT22;3823;53.586;10.040;2022-07-01T08:33:41;18.40;65.10
7564;DHT22;3823;53.586;10.040;2022-07-01T08:36:09;18.50;61.60
7564;DHT22;3823;53.586;10.040;2022-07-01T08:38:36;18.40;62.50
7564;DHT22;3823;53.586;10.040;2022-07-01T08:41:02;18.40;64.00
7564;DHT22;3823;53.586;10.040;2022-07-01T08:43:28;18.40;67.20
7564;DHT22;3823;53.586;10.040;2022-07-01T08:45:54;18.50;67.40
7564;DHT22;3823;53.586;10.040;2022-07-01T08:48:20;18.60;61.40
7564;DHT22;3823;53.586;10.040;2022-07-01T08:50:46;18.60;60.40
7564;DHT22;3823;53.586;10.040;2022-07-01T08:53:12;18.60;61.40
7564;DHT22;3823;53.586;10.040;2022-07-01T08:55:39;18.50;61.10
7564;DHT22;3823;53.586;10.040;2022-07-01T08:58:25;18.50;62.40
7564;DHT22;3823;53.586;10.040;2022-07-01T09:00:51;18.50;59.10
7564;DHT22;3823;53.586;10.040;2022-07-01T09:03:22;18.40;62.30
7564;DHT22;3823;53.586;10.040;2022-07-01T09:05:52;18.40;61.70
7564;DHT22;3823;53.586;10.040;2022-07-01T09:08:18;18.40;62.00
7564;DHT22;3823;53.586;10.040;2022-07-01T09:10:44;18.30;61.20
7564;DHT22;3823;53.586;10.040;2022-07-01T09:13:12;18.30;61.00
7564;DHT22;3823;53.586;10.040;2022-07-01T09:15:40;18.30;61.40
7564;DHT22;3823;53.586;10.040;2022-07-01T09:18:12;18.30;61.70
7564;DHT22;3823;53.586;10.040;2022-07-01T09:20:41;18.30;61.30
7564;DHT22;3823;53.586;10.040;2022-07-01T09:25:45;18.20;64.20
7564;DHT22;3823;53.586;10.040;2022-07-01T09:28:17;18.20;65.20
7564;DHT22;3823;53.586;10.040;2022-07-01T09:30:48;18.20;60.90
7564;DHT22;3823;53.586;10.040;2022-07-01T09:33:17;18.30;62.40
7564;DHT22;3823;53.586;10.040;2022-07-01T09:35:44;18.20;62.80
7564;DHT22;3823;53.586;10.040;2022-07-01T09:38:14;18.30;64.30
7564;DHT22;3823;53.586;10.040;2022-07-01T09:40:56;18.20;64.10
7564;DHT22;3823;53.586;10.040;2022-07-01T09:46:01;18.20;60.80
7564;DHT22;3823;53.586;10.040;2022-07-01T09:48:42;18.10;61.50
7564;DHT22;3823;53.586;10.040;2022-07-01T09:51:10;18.10;64.00
7564;DHT22;3823;53.586;10.040;2022-07-01T09:53:36;18.20;65.00
7564;DHT22;3823;53.586;10.040;2022-07-01T09:56:02;18.20;68.60
7564;DHT22;3823;53.586;10.040;2022-07-01T09:58:28;18.20;65.50
7564;DHT22;3823;53.586;10.040;2022-07-01T10:00:54;18.20;64.60
7564;DHT22;3823;53.586;10.040;2022-07-01T10:03:20;18.30;66.40
7564;DHT22;3823;53.586;10.040;2022-07-01T10:05:57;18.40;63.50
7564;DHT22;3823;53.586;10.040;2022-07-01T10:14:16;18.30;60.30
7564;DHT22;3823;53.586;10.040;2022-07-01T10:16:45;18.30;62.10
7564;DHT22;3823;53.586;10.040;2022-07-01T10:19:27;18.30;60.00
7564;DHT22;3823;53.586;10.040;2022-07-01T10:21:55;18.20;61.70
7564;DHT22;3823;53.586;10.040;2022-07-01T10:24:24;18.20;60.30
7564;DHT22;3823;53.586;10.040;2022-07-01T10:26:51;18.10;59.60
7564;DHT22;3823;53.586;10.040;2022-07-01T10:29:33;18.10;60.90
7564;DHT22;3823;53.586;10.040;2022-07-01T10:32:08;18.00;60.80
7564;DHT22;3823;53.586;10.040;2022-07-01T10:34:38;18.00;60.70
7564;DHT22;3823;53.586;10.040;2022-07-01T10:37:07;18.00;63.40
7564;DHT22;3823;53.586;10.040;2022-07-01T10:39:59;18.00;63.80
7564;DHT22;3823;53.586;10.040;2022-07-01T10:42:57;18.10;67.70
7564;DHT22;3823;53.586;10.040;2022-07-01T10:45:24;18.20;64.20
7564;DHT22;3823;53.586;10.040;2022-07-01T10:48:30;18.20;64.60
7564;DHT22;3823;53.586;10.040;2022-07-01T10:50:55;18.20;64.60
7564;DHT22;3823;53.586;10.040;2022-07-01T10:53:21;18.20;63.30
7564;DHT22;3823;53.586;10.040;2022-07-01T10:55:49;18.20;62.60
7564;DHT22;3823;53.586;10.040;2022-07-01T10:58:15;18.10;60.40
7564;DHT22;3823;53.586;10.040;2022-07-01T11:00:45;18.10;64.20
7564;DHT22;3823;53.586;10.040;2022-07-01T11:05:38;18.00;65.80
7564;DHT22;3823;53.586;10.040;2022-07-01T11:08:05;18.00;63.40
7564;DHT22;3823;53.586;10.040;2022-07-01T11:10:31;18.00;62.90
7564;DHT22;3823;53.586;10.040;2022-07-01T11:12:57;18.00;62.60
7564;DHT22;3823;53.586;10.040;2022-07-01T11:15:24;18.00;65.90
7564;DHT22;3823;53.586;10.040;2022-07-01T11:17:50;18.10;65.70
7564;DHT22;3823;53.586;10.040;2022-07-01T11:20:15;18.20;62.30
7564;DHT22;3823;53.586;10.040;2022-07-01T11:22:41;18.10;63.70
7564;DHT22;3823;53.586;10.040;2022-07-01T11:25:10;18.10;63.60
7564;DHT22;3823;53.586;10.040;2022-07-01T11:27:37;18.10;62.80
7564;DHT22;3823;53.586;10.040;2022-07-01T11:30:08;18.10;64.70
7564;DHT22;3823;53.586;10.040;2022-07-01T11:32:48;18.10;66.70
7564;DHT22;3823;53.586;10.040;2022-07-01T11:35:22;18.20;64.80
7564;DHT22;3823;53.586;10.040;2022-07-01T11:38:11;18.20;62.20
7564;DHT22;3823;53.586;10.040;2022-07-01T11:40:58;18.20;59.70
7564;DHT22;3823;53.586;10.040;2022-07-01T11:43:26;18.20;64.20
7564;DHT22;3823;53.586;10.040;2022-07-01T11:45:53;18.20;61.20
7564;DHT22;3823;53.586;10.040;2022-07-01T11:48:49;18.20;59.90
7564;DHT22;3823;53.586;10.040;2022-07-01T11:51:17;18.20;59.40
7564;DHT22;3823;53.586;10.040;2022-07-01T11:53:45;18.20;62.60
7564;DHT22;3823;53.586;10.040;2022-07-01T11:56:12;18.20;61.40
7564;DHT22;3823;53.586;10.040;2022-07-01T11:58:42;18.20;59.80
7564;DHT22;3823;53.586;10.040;2022-07-01T12:01:08;18.20;63.40
7564;DHT22;3823;53.586;10.040;2022-07-01T12:03:34;18.30;63.70
7564;DHT22;3823;53.586;10.040;2022-07-01T12:05:59;18.30;62.20
7564;DHT22;3823;53.586;10.040;2022-07-01T12:08:26;18.40;62.90
7564;DHT22;3823;53.586;10.040;2022-07-01T12:10:51;18.40;59.70
7564;DHT22;3823;53.586;10.040;2022-07-01T12:13:21;18.30;56.60
7564;DHT22;3823;53.586;10.040;2022-07-01T12:15:47;18.30;57.10
7564;DHT22;3823;53.586;10.040;2022-07-01T12:18:15;18.30;61.10
7564;DHT22;3823;53.586;10.040;2022-07-01T12:20:50;18.30;60.70
7564;DHT22;3823;53.586;10.040;2022-07-01T12:23:18;18.30;57.70
7564;DHT22;3823;53.586;10.040;2022-07-01T12:25:50;18.30;57.60
7564;DHT22;3823;53.586;10.040;2022-07-01T12:28:30;18.30;56.30
7564;DHT22;3823;53.586;10.040;2022-07-01T12:31:01;18.30;57.50
7564;DHT22;3823;53.586;10.040;2022-07-01T12:33:27;18.30;55.80
7564;DHT22;3823;53.586;10.040;2022-07-01T12:35:53;18.30;58.70
7564;DHT22;3823;53.586;10.040;2022-07-01T12:38:19;18.30;58.80
7564;DHT22;3823;53.586;10.040;2022-07-01T12:40:45;18.30;58.20
7564;DHT22;3823;53.586;10.040;2022-07-01T12:43:25;18.40;59.80
7564;DHT22;3823;53.586;10.040;2022-07-01T12:45:51;18.50;57.50
7564;DHT22;3823;53.586;10.040;2022-07-01T12:48:16;18.60;54.60
7564;DHT22;3823;53.586;10.040;2022-07-01T12:50:42;18.60;55.90
7564;DHT22;3823;53.586;10.040;2022-07-01T12:53:16;18.70;52.40
7564;DHT22;3823;53.586;10.040;2022-07-01T12:55:44;18.80;50.40
7564;DHT22;3823;53.586;10.040;2022-07-01T12:58:13;18.80;50.70
7564;DHT22;3823;53.586;10.040;2022-07-01T13:00:41;18.90;47.00
7564;DHT22;3823;53.586;10.040;2022-07-01T13:03:08;18.90;47.90
7564;DHT22;3823;53.586;10.040;2022-07-01T13:05:36;19.00;50.10
7564;DHT22;3823;53.586;10.040;2022-07-01T13:08:03;19.10;48.10
7564;DHT22;3823;53.586;10.040;2022-07-01T13:10:29;19.20;44.40
7564;DHT22;3823;53.586;10.040;2022-07-01T13:12:55;19.20;45.90
7564;DHT22;3823;53.586;10.040;2022-07-01T13:15:21;19.30;42.30
7564;DHT22;3823;53.586;10.040;2022-07-01T13:17:47;19.40;42.30
7564;DHT22;3823;53.586;10.040;2022-07-01T13:20:14;19.50;38.50
7564;DHT22;3823;53.586;10.040;2022-07-01T13:22:40;19.60;37.50
7564;DHT22;3823;53.586;10.040;2022-07-01T13:25:07;19.70;35.40
7564;DHT22;3823;53.586;10.040;2022-07-01T13:27:32;19.80;34.50
7564;DHT22;3823;53.586;10.040;2022-07-01T13:29:58;19.90;36.70
7564;DHT22;3823;53.586;10.040;2022-07-01T13:32:24;20.00;34.50
7564;DHT22;3823;53.586;10.040;2022-07-01T13:34:49;20.10;33.20
7564;DHT22;3823;53.586;10.040;2022-07-01T13:37:15;20.20;32.40
7564;DHT22;3823;53.586;10.040;2022-07-01T13:39:41;20.30;31.90
7564;DHT22;3823;53.586;10.040;2022-07-01T13:42:07;20.50;30.50
7564;DHT22;3823;53.586;10.040;2022-07-01T13:44:33;20.40;29.70
7564;DHT22;3823;53.586;10.040;2022-07-01T13:46:59;20.50;29.10
7564;DHT22;3823;53.586;10.040;2022-07-01T13:49:25;20.40;28.40
7564;DHT22;3823;53.586;10.040;2022-07-01T13:51:50;20.50;29.50
7564;DHT22;3823;53.586;10.040;2022-07-01T13:54:16;20.50;30.20
7564;DHT22;3823;53.586;10.040;2022-07-01T13:56:42;20.60;28.70
7564;DHT22;3823;53.586;10.040;2022-07-01T13:59:08;20.60;27.20
7564;DHT22;3823;53.586;10.040;2022-07-01T14:01:34;20.60;27.80
7564;DHT22;3823;53.586;10.040;2022-07-01T14:04:00;20.60;25.90
7564;DHT22;3823;53.586;10.040;2022-07-01T14:06:26;20.50;25.60
7564;DHT22;3823;53.586;10.040;2022-07-01T14:08:51;20.50;26.70
7564;DHT22;3823;53.586;10.040;2022-07-01T14:11:17;20.60;26.20
7564;DHT22;3823;53.586;10.040;2022-07-01T14:13:42;20.70;24.40
7564;DHT22;3823;53.586;10.040;2022-07-01T14:16:08;20.70;24.40
7564;DHT22;3823;53.586;10.040;2022-07-01T14:18:34;20.80;25.40
7564;DHT22;3823;53.586;10.040;2022-07-01T14:21:04;21.00;23.30
7564;DHT22;3823;53.586;10.040;2022-07-01T14:23:32;21.00;23.10
7564;DHT22;3823;53.586;10.040;2022-07-01T14:25:58;21.10;22.80
7564;DHT22;3823;53.586;10.040;2022-07-01T14:28:24;20.90;23.50
7564;DHT22;3823;53.586;10.040;2022-07-01T14:30:50;20.90;23.10
7564;DHT22;3823;53.586;10.040;2022-07-01T14:33:16;20.80;23.70
7564;DHT22;3823;53.586;10.040;2022-07-01T14:35:43;20.70;24.10
7564;DHT22;3823;53.586;10.040;2022-07-01T14:38:08;20.80;25.20
7564;DHT22;3823;53.586;10.040;2022-07-01T14:40:35;20.80;25.40
7564;DHT22;3823;53.586;10.040;2022-07-01T14:43:01;20.80;24.50
7564;DHT22;3823;53.586;10.040;2022-07-01T14:45:27;20.80;25.40
7564;DHT22;3823;53.586;10.040;2022-07-01T14:47:53;20.70;24.90
7564;DHT22;3823;53.586;10.040;2022-07-01T14:50:18;20.70;24.90
7564;DHT22;3823;53.586;10.040;2022-07-01T14:52:44;20.60;24.30
7564;DHT22;3823;53.586;10.040;2022-07-01T14:55:10;20.60;23.30
7564;DHT22;3823;53.586;10.040;2022-07-01T14:57:36;20.50;24.00
7564;DHT22;3823;53.586;10.040;2022-07-01T15:00:04;20.40;23.60
7564;DHT22;3823;53.586;10.040;2022-07-01T15:02:30;20.30;23.70
7564;DHT22;3823;53.586;10.040;2022-07-01T15:04:56;20.30;23.10
7564;DHT22;3823;53.586;10.040;2022-07-01T15:07:22;20.20;24.40
7564;DHT22;3823;53.586;10.040;2022-07-01T15:09:50;20.30;24.50
7564;DHT22;3823;53.586;10.040;2022-07-01T15:12:16;20.30;25.20
7564;DHT22;3823;53.586;10.040;2022-07-01T15:14:41;20.30;24.80
7564;DHT22;3823;53.586;10.040;2022-07-01T15:17:07;20.30;27.30
7564;DHT22;3823;53.586;10.040;2022-07-01T15:19:33;20.20;25.80
7564;DHT22;3823;53.586;10.040;2022-07-01T15:21:58;20.10;25.00
7564;DHT22;3823;53.586;10.040;2022-07-01T15:24:24;20.10;24.80
7564;DHT22;3823;53.586;10.040;2022-07-01T15:26:51;20.10;24.80
7564;DHT22;3823;53.586;10.040;2022-07-01T15:29:17;20.10;24.80
7564;DHT22;3823;53.586;10.040;2022-07-01T15:31:43;20.20;24.80
7564;DHT22;3823;53.586;10.040;2022-07-01T15:34:08;20.20;24.70
7564;DHT22;3823;53.586;10.040;2022-07-01T15:36:36;20.30;25.00
7564;DHT22;3823;53.586;10.040;2022-07-01T15:39:02;20.30;24.70
7564;DHT22;3823;53.586;10.040;2022-07-01T15:41:28;20.30;25.10
7564;DHT22;3823;53.586;10.040;2022-07-01T15:43:54;20.40;24.90
7564;DHT22;3823;53.586;10.040;2022-07-01T15:46:20;20.30;24.80
7564;DHT22;3823;53.586;10.040;2022-07-01T15:48:45;20.40;25.00
7564;DHT22;3823;53.586;10.040;2022-07-01T15:51:11;20.40;24.80
7564;DHT22;3823;53.586;10.040;2022-07-01T15:53:37;20.30;24.80
7564;DHT22;3823;53.586;10.040;2022-07-01T15:56:03;20.20;24.70
7564;DHT22;3823;53.586;10.040;2022-07-01T15:58:28;20.20;25.30